createdAt,value
2019-02-14T00:00:38.501Z,0.00
2019-02-14T00:01:38.460Z,0.00
2019-02-14T00:02:38.414Z,0.00
2019-02-14T00:03:38.368Z,0.00
2019-02-14T00:04:38.353Z,0.00
2019-02-14T00:05:38.269Z,0.00
2019-02-14T00:06:38.227Z,0.00
2019-02-14T00:07:38.186Z,0.00
2019-02-14T00:08:38.139Z,0.00
2019-02-14T00:09:38.085Z,0.00
2019-02-14T00:10:38.068Z,0.00
2019-02-14T00:11:37.996Z,0.00
2019-02-14T00:12:37.972Z,0.00
2019-02-14T00:13:37.912Z,0.00
2019-02-14T00:14:37.863Z,0.00
2019-02-14T00:15:37.823Z,0.00
2019-02-14T00:16:37.806Z,0.00
2019-02-14T00:17:37.728Z,0.00
2019-02-14T00:18:37.678Z,0.00
2019-02-14T00:19:37.632Z,0.00
2019-02-14T00:20:37.576Z,0.00
2019-02-14T00:21:37.566Z,0.00
2019-02-14T00:22:37.500Z,0.00
2019-02-14T00:23:37.441Z,0.00
2019-02-14T00:24:37.393Z,0.00
2019-02-14T00:25:37.360Z,0.00
2019-02-14T00:26:37.341Z,0.00
2019-02-14T00:27:37.271Z,0.00
2019-02-14T00:28:37.219Z,0.00
2019-02-14T00:29:37.170Z,0.00
2019-02-14T00:30:37.120Z,0.00
2019-02-14T00:31:37.098Z,0.00
2019-02-14T00:32:37.028Z,0.00
2019-02-14T00:33:37.001Z,0.00
2019-02-14T00:34:36.952Z,0.00
2019-02-14T00:35:36.908Z,0.00
2019-02-14T00:36:36.879Z,0.00
2019-02-14T00:37:36.796Z,0.00
2019-02-14T00:38:36.755Z,0.00
2019-02-14T00:39:36.724Z,0.00
2019-02-14T00:40:36.666Z,0.00
2019-02-14T00:41:36.619Z,0.00
2019-02-14T00:42:36.599Z,0.00
2019-02-14T00:43:36.522Z,0.00
2019-02-14T00:44:36.483Z,0.00
2019-02-14T00:45:36.441Z,0.00
2019-02-14T00:46:36.396Z,0.00
2019-02-14T00:47:36.344Z,0.00
2019-02-14T00:48:36.333Z,0.00
2019-02-14T00:49:36.250Z,0.00
2019-02-14T00:50:36.205Z,0.00
2019-02-14T00:51:36.154Z,0.00
2019-02-14T00:52:36.131Z,0.00
2019-02-14T00:53:36.076Z,0.00
2019-02-14T00:54:36.026Z,0.00
2019-02-14T00:55:35.973Z,0.00
2019-02-14T00:56:35.932Z,0.00
2019-02-14T00:57:35.918Z,0.00
2019-02-14T00:58:35.844Z,0.00
2019-02-14T00:59:35.798Z,0.00
2019-02-14T01:00:35.746Z,0.00
2019-02-14T01:01:35.694Z,0.00
2019-02-14T01:02:35.647Z,0.00
2019-02-14T01:03:35.627Z,0.00
2019-02-14T01:04:35.554Z,0.00
2019-02-14T01:05:35.516Z,0.00
2019-02-14T01:06:35.478Z,0.00
2019-02-14T01:07:35.450Z,0.00
2019-02-14T01:08:35.377Z,0.00
2019-02-14T01:09:35.323Z,0.00
2019-02-14T01:10:35.278Z,0.00
2019-02-14T01:11:35.242Z,0.00
2019-02-14T01:12:35.200Z,0.00
2019-02-14T01:13:35.169Z,0.00
2019-02-14T01:14:35.097Z,0.00
2019-02-14T01:15:35.045Z,0.00
2019-02-14T01:16:35.002Z,0.00
2019-02-14T01:17:34.965Z,0.00
2019-02-14T01:18:34.917Z,0.00
2019-02-14T01:19:34.891Z,0.00
2019-02-14T01:20:34.823Z,0.00
2019-02-14T01:21:34.771Z,0.00
2019-02-14T01:22:34.726Z,0.00
2019-02-14T01:23:34.702Z,0.00
2019-02-14T01:24:34.630Z,0.00
2019-02-14T01:25:34.597Z,0.00
2019-02-14T01:26:34.544Z,0.00
2019-02-14T01:27:34.505Z,0.00
2019-02-14T01:28:34.471Z,0.00
2019-02-14T01:29:34.411Z,0.00
2019-02-14T01:30:34.360Z,0.00
2019-02-14T01:31:34.313Z,0.00
2019-02-14T01:32:34.287Z,0.00
2019-02-14T01:33:34.243Z,0.00
2019-02-14T01:34:34.170Z,0.00
2019-02-14T01:35:41.649Z,0.00
2019-02-14T01:36:34.075Z,0.00
2019-02-14T01:37:34.040Z,0.00
2019-02-14T01:38:34.027Z,0.00
2019-02-14T01:39:33.943Z,0.00
2019-02-14T01:40:33.900Z,0.00
2019-02-14T01:41:33.845Z,0.00
2019-02-14T01:42:33.801Z,0.00
2019-02-14T01:43:33.759Z,0.00
2019-02-14T01:44:33.752Z,0.00
2019-02-14T01:45:33.662Z,0.00
2019-02-14T01:46:33.617Z,0.00
2019-02-14T01:47:33.570Z,0.00
2019-02-14T01:48:33.525Z,0.00
2019-02-14T01:49:33.484Z,0.00
2019-02-14T01:50:33.456Z,0.00
2019-02-14T01:51:33.386Z,0.00
2019-02-14T01:52:33.344Z,0.00
2019-02-14T01:53:33.293Z,0.00
2019-02-14T01:54:33.245Z,0.00
2019-02-14T01:55:33.228Z,0.00
2019-02-14T01:56:33.150Z,0.00
2019-02-14T01:57:33.116Z,0.00
2019-02-14T01:58:33.068Z,0.00
2019-02-14T01:59:33.012Z,0.00
2019-02-14T02:00:32.967Z,0.00
2019-02-14T02:01:32.952Z,0.00
2019-02-14T02:02:32.884Z,0.00
2019-02-14T02:03:32.839Z,0.00
2019-02-14T02:04:32.790Z,0.00
2019-02-14T02:05:32.757Z,0.00
2019-02-14T02:06:32.689Z,0.00
2019-02-14T02:07:32.673Z,0.00
2019-02-14T02:08:32.601Z,0.00
2019-02-14T02:09:32.564Z,0.00
2019-02-14T02:10:32.515Z,0.00
2019-02-14T02:11:32.465Z,0.00
2019-02-14T02:12:32.417Z,0.00
2019-02-14T02:13:32.387Z,0.00
2019-02-14T02:14:32.320Z,0.00
2019-02-14T02:15:32.279Z,0.00
2019-02-14T02:16:32.235Z,0.00
2019-02-14T02:17:32.205Z,0.00
2019-02-14T02:18:32.136Z,0.00
2019-02-14T02:19:32.086Z,0.00
2019-02-14T02:20:33.529Z,0.00
2019-02-14T02:21:32.007Z,0.00
2019-02-14T02:22:31.980Z,0.00
2019-02-14T02:23:31.911Z,0.00
2019-02-14T02:24:31.862Z,0.00
2019-02-14T02:25:31.815Z,0.00
2019-02-14T02:26:31.766Z,0.00
2019-02-14T02:27:31.752Z,0.00
2019-02-14T02:28:31.669Z,0.00
2019-02-14T02:29:31.635Z,0.00
2019-02-14T02:30:31.588Z,0.00
2019-02-14T02:31:31.538Z,0.00
2019-02-14T02:32:31.489Z,0.00
2019-02-14T02:33:31.467Z,0.00
2019-02-14T02:34:31.405Z,0.00
2019-02-14T02:35:31.353Z,0.00
2019-02-14T02:36:31.311Z,0.00
2019-02-14T02:37:31.258Z,0.00
2019-02-14T02:38:31.282Z,0.00
2019-02-14T02:39:31.160Z,0.00
2019-02-14T02:40:31.118Z,0.00
2019-02-14T02:41:31.076Z,0.00
2019-02-14T02:42:31.039Z,0.00
2019-02-14T02:43:31.003Z,0.00
2019-02-14T02:44:30.956Z,0.00
2019-02-14T02:45:30.886Z,0.00
2019-02-14T02:46:30.846Z,0.00
2019-02-14T02:47:30.792Z,0.00
2019-02-14T02:48:30.781Z,0.00
2019-02-14T02:49:30.700Z,0.00
2019-02-14T02:50:30.651Z,0.00
2019-02-14T02:51:30.602Z,0.00
2019-02-14T02:52:30.553Z,0.00
2019-02-14T02:53:30.513Z,0.00
2019-02-14T02:54:30.490Z,0.00
2019-02-14T02:55:30.423Z,0.00
2019-02-14T02:56:30.375Z,0.00
2019-02-14T02:57:30.321Z,0.00
2019-02-14T02:58:30.271Z,0.00
2019-02-14T02:59:30.249Z,0.00
2019-02-14T03:00:30.205Z,0.00
2019-02-14T03:01:39.550Z,0.00
2019-02-14T03:02:30.091Z,0.00
2019-02-14T03:03:30.046Z,0.00
2019-02-14T03:04:30.032Z,0.00
2019-02-14T03:05:29.960Z,0.00
2019-02-14T03:06:29.919Z,0.00
2019-02-14T03:07:29.851Z,0.00
2019-02-14T03:08:29.835Z,0.00
2019-02-14T03:09:29.780Z,0.00
2019-02-14T03:10:29.740Z,0.00
2019-02-14T03:11:29.677Z,0.00
2019-02-14T03:12:29.621Z,0.00
2019-02-14T03:13:29.575Z,0.00
2019-02-14T03:14:29.527Z,0.00
2019-02-14T03:15:29.476Z,0.00
2019-02-14T03:16:29.456Z,0.00
2019-02-14T03:17:29.390Z,0.00
2019-02-14T03:18:29.341Z,0.00
2019-02-14T03:19:29.284Z,0.00
2019-02-14T03:20:29.260Z,0.00
2019-02-14T03:21:29.237Z,0.00
2019-02-14T03:22:29.146Z,0.00
2019-02-14T03:23:29.101Z,0.00
2019-02-14T03:24:29.059Z,0.00
2019-02-14T03:25:29.013Z,0.00
2019-02-14T03:26:28.974Z,0.00
2019-02-14T03:27:28.940Z,0.00
2019-02-14T03:28:28.868Z,0.00
2019-02-14T03:29:28.813Z,0.00
2019-02-14T03:30:28.776Z,0.00
2019-02-14T03:31:28.758Z,0.00
2019-02-14T03:32:28.699Z,0.00
2019-02-14T03:33:28.633Z,0.00
2019-02-14T03:34:28.576Z,0.00
2019-02-14T03:35:28.539Z,0.00
2019-02-14T03:36:28.526Z,0.00
2019-02-14T03:37:28.439Z,0.00
2019-02-14T03:38:28.397Z,0.00
2019-02-14T03:39:28.343Z,0.00
2019-02-14T03:40:28.309Z,0.00
2019-02-14T03:41:28.243Z,0.00
2019-02-14T03:42:28.217Z,0.00
2019-02-14T03:43:28.165Z,0.00
2019-02-14T03:44:28.130Z,0.00
2019-02-14T03:45:28.089Z,0.00
2019-02-14T03:46:28.037Z,0.00
2019-02-14T03:47:27.980Z,0.00
2019-02-14T03:48:27.919Z,0.00
2019-02-14T03:49:27.877Z,0.00
2019-02-14T03:50:27.832Z,0.00
2019-02-14T03:51:27.799Z,0.00
2019-02-14T03:52:27.723Z,0.00
2019-02-14T03:53:27.678Z,0.00
2019-02-14T03:54:27.636Z,0.00
2019-02-14T03:55:27.592Z,0.00
2019-02-14T03:56:27.574Z,0.00
2019-02-14T03:57:27.508Z,0.00
2019-02-14T03:58:27.451Z,0.00
2019-02-14T03:59:27.398Z,0.00
2019-02-14T04:00:27.350Z,0.00
2019-02-14T04:01:27.304Z,0.00
2019-02-14T04:02:27.279Z,0.00
2019-02-14T04:03:27.218Z,0.00
2019-02-14T04:04:27.164Z,0.00
2019-02-14T04:05:27.108Z,0.00
2019-02-14T04:06:27.759Z,0.00
2019-02-14T04:07:27.017Z,0.00
2019-02-14T04:08:27.009Z,0.00
2019-02-14T04:09:26.922Z,0.00
2019-02-14T04:10:26.873Z,0.00
2019-02-14T04:11:26.819Z,0.00
2019-02-14T04:12:26.786Z,0.00
2019-02-14T04:13:26.723Z,0.00
2019-02-14T04:14:26.713Z,0.00
2019-02-14T04:15:26.642Z,0.00
2019-02-14T04:16:26.589Z,0.00
2019-02-14T04:17:26.548Z,0.00
2019-02-14T04:18:26.520Z,0.00
2019-02-14T04:19:26.437Z,0.00
2019-02-14T04:20:26.395Z,0.00
2019-02-14T04:21:26.362Z,0.00
2019-02-14T04:22:26.299Z,0.00
2019-02-14T04:23:26.244Z,0.00
2019-02-14T04:24:26.229Z,0.00
2019-02-14T04:25:26.150Z,0.00
2019-02-14T04:26:26.105Z,0.00
2019-02-14T04:27:26.059Z,0.00
2019-02-14T04:28:26.019Z,0.00
2019-02-14T04:29:25.994Z,0.00
2019-02-14T04:30:25.921Z,0.00
2019-02-14T04:31:25.887Z,0.00
2019-02-14T04:32:25.818Z,0.00
2019-02-14T04:33:25.792Z,0.00
2019-02-14T04:34:25.722Z,0.00
2019-02-14T04:35:25.687Z,0.00
2019-02-14T04:36:25.632Z,0.00
2019-02-14T04:37:25.579Z,0.00
2019-02-14T04:38:25.559Z,0.00
2019-02-14T04:39:25.494Z,0.00
2019-02-14T04:40:33.271Z,0.00
2019-02-14T04:41:25.399Z,0.00
2019-02-14T04:42:25.345Z,0.00
2019-02-14T04:43:25.323Z,0.00
2019-02-14T04:44:25.251Z,0.00
2019-02-14T04:45:25.196Z,0.00
2019-02-14T04:46:25.151Z,0.00
2019-02-14T04:47:25.116Z,0.00
2019-02-14T04:48:25.103Z,0.00
2019-02-14T04:49:25.017Z,0.00
2019-02-14T04:50:24.969Z,0.00
2019-02-14T04:51:24.914Z,0.00
2019-02-14T04:52:24.862Z,0.00
2019-02-14T04:53:24.838Z,0.00
2019-02-14T04:54:24.812Z,0.00
2019-02-14T04:55:24.715Z,0.00
2019-02-14T04:56:24.670Z,0.00
2019-02-14T04:57:24.630Z,0.00
2019-02-14T04:58:24.597Z,0.00
2019-02-14T04:59:24.576Z,0.00
2019-02-14T05:00:24.484Z,0.00
2019-02-14T05:01:24.441Z,0.00
2019-02-14T05:02:24.390Z,0.00
2019-02-14T05:03:24.333Z,0.00
2019-02-14T05:04:24.289Z,0.00
2019-02-14T05:05:24.261Z,0.00
2019-02-14T05:06:24.215Z,0.00
2019-02-14T05:07:24.155Z,0.00
2019-02-14T05:08:24.099Z,0.00
2019-02-14T05:09:24.049Z,0.00
2019-02-14T05:10:24.011Z,0.00
2019-02-14T05:11:23.986Z,0.00
2019-02-14T05:12:23.942Z,0.00
2019-02-14T05:13:23.859Z,0.00
2019-02-14T05:14:23.815Z,0.00
2019-02-14T05:15:23.761Z,0.00
2019-02-14T05:16:23.720Z,0.00
2019-02-14T05:17:23.690Z,0.00
2019-02-14T05:18:23.615Z,0.00
2019-02-14T05:19:23.576Z,0.00
2019-02-14T05:20:23.528Z,0.00
2019-02-14T05:21:23.489Z,0.00
2019-02-14T05:22:23.429Z,0.00
2019-02-14T05:23:23.401Z,0.00
2019-02-14T05:24:23.323Z,0.00
2019-02-14T05:25:23.298Z,0.00
2019-02-14T05:26:23.249Z,0.00
2019-02-14T05:27:23.212Z,0.00
2019-02-14T05:28:23.161Z,0.00
2019-02-14T05:29:23.088Z,0.00
2019-02-14T05:30:23.036Z,0.00
2019-02-14T05:31:22.999Z,0.00
2019-02-14T05:32:22.981Z,0.00
2019-02-14T05:33:22.898Z,0.00
2019-02-14T05:34:22.855Z,0.00
2019-02-14T05:35:22.796Z,0.00
2019-02-14T05:36:22.762Z,0.00
2019-02-14T05:37:22.729Z,0.00
2019-02-14T05:38:22.679Z,0.00
2019-02-14T05:39:22.613Z,0.00
2019-02-14T05:40:22.569Z,0.00
2019-02-14T05:41:22.516Z,0.00
2019-02-14T05:42:22.488Z,0.00
2019-02-14T05:43:22.417Z,0.00
2019-02-14T05:44:22.375Z,0.00
2019-02-14T05:45:22.328Z,0.00
2019-02-14T05:46:22.301Z,0.00
2019-02-14T05:47:22.246Z,0.00
2019-02-14T05:48:22.199Z,0.00
2019-02-14T05:49:22.132Z,0.00
2019-02-14T05:50:22.095Z,0.00
2019-02-14T05:51:22.043Z,0.00
2019-02-14T05:52:22.022Z,0.00
2019-02-14T05:53:21.945Z,0.00
2019-02-14T05:54:21.910Z,0.00
2019-02-14T05:55:21.844Z,0.00
2019-02-14T05:56:21.786Z,0.00
2019-02-14T05:57:21.778Z,0.00
2019-02-14T05:58:21.701Z,0.00
2019-02-14T05:59:21.642Z,0.00
2019-02-14T06:00:21.605Z,0.00
2019-02-14T06:01:21.567Z,0.00
2019-02-14T06:02:21.508Z,0.00
2019-02-14T06:03:21.487Z,0.00
2019-02-14T06:04:21.422Z,0.00
2019-02-14T06:05:21.368Z,0.00
2019-02-14T06:06:21.319Z,0.00
2019-02-14T06:07:21.264Z,0.00
2019-02-14T06:08:21.263Z,0.00
2019-02-14T06:09:21.168Z,0.00
2019-02-14T06:10:21.146Z,0.00
2019-02-14T06:11:21.074Z,0.00
2019-02-14T06:12:21.055Z,0.00
2019-02-14T06:13:20.993Z,0.00
2019-02-14T06:14:20.957Z,4.00
2019-02-14T06:15:20.893Z,4.00
2019-02-14T06:16:20.837Z,4.00
2019-02-14T06:17:20.809Z,0.00
2019-02-14T06:18:20.751Z,4.00
2019-02-14T06:19:20.720Z,8.00
2019-02-14T06:20:20.661Z,4.00
2019-02-14T06:21:20.581Z,8.00
2019-02-14T06:22:20.545Z,8.00
2019-02-14T06:23:20.493Z,8.00
2019-02-14T06:24:20.453Z,12.00
2019-02-14T06:25:20.433Z,12.00
2019-02-14T06:26:20.359Z,16.00
2019-02-14T06:27:20.321Z,20.00
2019-02-14T06:28:20.250Z,28.00
2019-02-14T06:29:20.241Z,32.00
2019-02-14T06:30:20.160Z,32.00
2019-02-14T06:31:20.108Z,40.00
2019-02-14T06:32:20.056Z,48.00
2019-02-14T06:33:20.008Z,60.00
2019-02-14T06:34:19.965Z,68.00
2019-02-14T06:35:19.946Z,80.00
2019-02-14T06:36:19.873Z,92.00
2019-02-14T06:37:19.853Z,104.00
2019-02-14T06:38:19.781Z,120.00
2019-02-14T06:39:19.722Z,136.00
2019-02-14T06:40:19.670Z,152.00
2019-02-14T06:41:19.618Z,172.00
2019-02-14T06:42:19.602Z,192.00
2019-02-14T06:43:19.535Z,216.00
2019-02-14T06:44:19.494Z,244.00
2019-02-14T06:45:19.444Z,268.00
2019-02-14T06:46:19.391Z,292.00
2019-02-14T06:47:19.342Z,324.00
2019-02-14T06:48:19.319Z,352.00
2019-02-14T06:49:19.257Z,384.00
2019-02-14T06:50:19.210Z,416.00
2019-02-14T06:51:19.166Z,448.00
2019-02-14T06:52:19.094Z,480.00
2019-02-14T06:53:19.049Z,516.00
2019-02-14T06:54:19.013Z,556.00
2019-02-14T06:55:18.977Z,580.00
2019-02-14T06:56:18.910Z,624.00
2019-02-14T06:57:18.868Z,664.00
2019-02-14T06:58:18.804Z,708.00
2019-02-14T06:59:18.762Z,752.00
2019-02-14T07:00:18.743Z,804.00
2019-02-14T07:01:18.660Z,848.00
2019-02-14T07:02:18.619Z,896.00
2019-02-14T07:03:18.567Z,948.00
2019-02-14T07:04:18.524Z,1004.00
2019-02-14T07:05:18.496Z,1056.00
2019-02-14T07:06:18.428Z,1108.00
2019-02-14T07:07:19.052Z,1164.00
2019-02-14T07:08:18.327Z,1224.00
2019-02-14T07:09:18.452Z,1284.00
2019-02-14T07:10:18.325Z,1344.00
2019-02-14T07:11:18.190Z,1408.00
2019-02-14T07:12:18.307Z,1460.00
2019-02-14T07:13:18.202Z,1508.00
2019-02-14T07:14:18.051Z,1560.00
2019-02-14T07:15:18.001Z,1604.00
2019-02-14T07:16:18.088Z,1652.00
2019-02-14T07:17:17.952Z,1696.00
2019-02-14T07:18:17.867Z,1744.00
2019-02-14T07:19:17.903Z,1788.00
2019-02-14T07:20:17.800Z,1824.00
2019-02-14T07:21:17.731Z,1876.00
2019-02-14T07:22:17.681Z,1940.00
2019-02-14T07:23:17.628Z,1996.00
2019-02-14T07:24:17.594Z,2060.00
2019-02-14T07:25:17.516Z,2160.00
2019-02-14T07:26:17.474Z,2436.00
2019-02-14T07:27:17.426Z,3280.00
2019-02-14T07:28:17.394Z,4108.00
2019-02-14T07:29:17.335Z,4740.00
2019-02-14T07:30:17.284Z,5388.00
2019-02-14T07:31:17.242Z,6032.00
2019-02-14T07:32:17.191Z,6896.00
2019-02-14T07:33:17.162Z,7584.00
2019-02-14T07:34:17.206Z,7772.00
2019-02-14T07:35:17.292Z,7932.00
2019-02-14T07:36:17.008Z,8108.00
2019-02-14T07:37:16.962Z,8352.00
2019-02-14T07:38:17.211Z,8512.00
2019-02-14T07:39:16.957Z,8532.00
2019-02-14T07:40:16.839Z,8528.00
2019-02-14T07:41:16.778Z,8692.00
2019-02-14T07:42:16.727Z,8872.00
2019-02-14T07:43:16.692Z,8916.00
2019-02-14T07:44:16.640Z,8852.00
2019-02-14T07:45:16.619Z,8988.00
2019-02-14T07:46:22.532Z,9324.00
2019-02-14T07:47:16.504Z,9536.00
2019-02-14T07:48:16.464Z,9664.00
2019-02-14T07:49:16.414Z,9788.00
2019-02-14T07:50:16.407Z,9916.00
2019-02-14T07:51:16.343Z,10156.00
2019-02-14T07:52:16.283Z,10356.00
2019-02-14T07:53:16.240Z,10308.00
2019-02-14T07:54:16.188Z,10276.00
2019-02-14T07:55:16.242Z,10612.00
2019-02-14T07:56:16.134Z,10968.00
2019-02-14T07:57:16.076Z,9696.00
2019-02-14T07:58:16.034Z,9192.00
2019-02-14T07:59:15.982Z,6860.00
2019-02-14T08:00:15.931Z,9544.00
2019-02-14T08:01:15.891Z,11692.00
2019-02-14T08:02:15.879Z,10100.00
2019-02-14T08:03:15.837Z,8224.00
2019-02-14T08:04:15.769Z,6144.00
2019-02-14T08:05:15.739Z,8888.00
2019-02-14T08:06:15.712Z,9748.00
2019-02-14T08:07:15.638Z,8208.00
2019-02-14T08:08:15.599Z,8132.00
2019-02-14T08:09:15.577Z,11928.00
2019-02-14T08:10:15.514Z,12428.00
2019-02-14T08:11:15.485Z,12424.00
2019-02-14T08:12:15.426Z,12392.00
2019-02-14T08:13:15.378Z,12492.00
2019-02-14T08:14:15.335Z,12544.00
2019-02-14T08:15:15.317Z,12240.00
2019-02-14T08:16:15.281Z,12012.00
2019-02-14T08:17:15.225Z,12568.00
2019-02-14T08:18:15.215Z,12932.00
2019-02-14T08:19:15.136Z,12948.00
2019-02-14T08:20:15.086Z,12984.00
2019-02-14T08:21:15.058Z,12952.00
2019-02-14T08:22:15.020Z,13200.00
2019-02-14T08:23:14.991Z,13308.00
2019-02-14T08:24:14.951Z,13328.00
2019-02-14T08:25:14.885Z,13376.00
2019-02-14T08:26:14.845Z,13440.00
2019-02-14T08:27:14.805Z,13288.00
2019-02-14T08:28:14.807Z,11644.00
2019-02-14T08:29:14.736Z,10444.00
2019-02-14T08:30:14.689Z,12384.00
2019-02-14T08:31:14.641Z,13608.00
2019-02-14T08:32:14.596Z,13656.00
2019-02-14T08:33:14.594Z,13708.00
2019-02-14T08:34:14.732Z,13780.00
2019-02-14T08:35:14.510Z,13824.00
2019-02-14T08:36:14.456Z,12744.00
2019-02-14T08:37:14.419Z,9788.00
2019-02-14T08:38:14.360Z,13736.00
2019-02-14T08:39:14.354Z,14100.00
2019-02-14T08:40:14.289Z,14076.00
2019-02-14T08:41:14.255Z,14084.00
2019-02-14T08:42:14.209Z,14192.00
2019-02-14T08:43:14.173Z,14088.00
2019-02-14T08:44:14.158Z,14144.00
2019-02-14T08:45:14.082Z,14288.00
2019-02-14T08:46:14.061Z,14464.00
2019-02-14T08:47:14.030Z,13348.00
2019-02-14T08:48:13.980Z,13648.00
2019-02-14T08:49:13.964Z,14508.00
2019-02-14T08:50:13.909Z,14492.00
2019-02-14T08:51:13.865Z,14980.00
2019-02-14T08:52:13.821Z,15148.00
2019-02-14T08:53:13.789Z,15284.00
2019-02-14T08:54:13.792Z,14436.00
2019-02-14T08:55:13.710Z,12040.00
2019-02-14T08:56:13.671Z,11532.00
2019-02-14T08:57:13.629Z,13352.00
2019-02-14T08:58:13.592Z,15540.00
2019-02-14T08:59:13.552Z,15968.00
2019-02-14T09:00:13.540Z,15152.00
2019-02-14T09:01:13.504Z,14924.00
2019-02-14T09:02:13.442Z,14480.00
2019-02-14T09:03:13.396Z,15808.00
2019-02-14T09:04:13.358Z,16480.00
2019-02-14T09:05:13.351Z,16256.00
2019-02-14T09:06:13.314Z,14616.00
2019-02-14T09:07:13.260Z,14636.00
2019-02-14T09:08:13.225Z,13684.00
2019-02-14T09:09:13.177Z,14188.00
2019-02-14T09:10:13.147Z,15356.00
2019-02-14T09:11:13.132Z,16512.00
2019-02-14T09:12:13.079Z,16160.00
2019-02-14T09:13:17.190Z,16256.00
2019-02-14T09:14:13.000Z,16672.00
2019-02-14T09:15:12.975Z,16992.00
2019-02-14T09:16:12.914Z,16928.00
2019-02-14T09:17:12.894Z,17472.00
2019-02-14T09:18:12.848Z,16640.00
2019-02-14T09:19:12.808Z,17024.00
2019-02-14T09:20:12.791Z,16576.00
2019-02-14T09:21:12.781Z,16992.00
2019-02-14T09:22:12.712Z,16512.00
2019-02-14T09:23:14.609Z,16896.00
2019-02-14T09:24:12.695Z,17504.00
2019-02-14T09:25:12.766Z,17792.00
2019-02-14T09:26:12.688Z,17984.00
2019-02-14T09:27:12.531Z,18240.00
2019-02-14T09:28:21.613Z,18432.00
2019-02-14T09:29:14.302Z,18240.00
2019-02-14T09:30:12.429Z,17664.00
2019-02-14T09:31:12.402Z,18304.00
2019-02-14T09:32:12.348Z,17440.00
2019-02-14T09:33:12.299Z,14336.00
2019-02-14T09:34:12.267Z,13336.00
2019-02-14T09:35:12.254Z,14460.00
2019-02-14T09:36:12.196Z,13940.00
2019-02-14T09:37:12.190Z,13768.00
2019-02-14T09:38:12.139Z,16608.00
2019-02-14T09:39:12.093Z,16832.00
2019-02-14T09:40:12.075Z,17504.00
2019-02-14T09:41:12.057Z,16512.00
2019-02-14T09:42:12.008Z,16672.00
2019-02-14T09:43:12.181Z,15152.00
2019-02-14T09:44:11.928Z,12520.00
2019-02-14T09:45:11.892Z,11188.00
2019-02-14T09:46:11.884Z,12024.00
2019-02-14T09:47:11.813Z,14352.00
2019-02-14T09:48:11.842Z,15208.00
2019-02-14T09:49:11.761Z,11908.00
2019-02-14T09:50:11.740Z,13780.00
2019-02-14T09:51:11.684Z,13832.00
2019-02-14T09:52:11.669Z,12676.00
2019-02-14T09:53:11.605Z,10912.00
2019-02-14T09:54:11.581Z,10892.00
2019-02-14T09:55:11.712Z,9476.00
2019-02-14T09:56:11.606Z,9420.00
2019-02-14T09:57:11.469Z,10960.00
2019-02-14T09:58:11.443Z,12656.00
2019-02-14T09:59:11.387Z,13420.00
2019-02-14T10:00:11.390Z,14316.00
2019-02-14T10:01:11.348Z,14536.00
2019-02-14T10:02:11.280Z,14816.00
2019-02-14T10:03:11.260Z,12752.00
2019-02-14T10:04:11.203Z,11332.00
2019-02-14T10:05:11.176Z,13112.00
2019-02-14T10:06:11.155Z,12132.00
2019-02-14T10:07:11.092Z,12948.00
2019-02-14T10:08:13.123Z,14464.00
2019-02-14T10:09:11.266Z,11508.00
2019-02-14T10:10:10.999Z,14028.00
2019-02-14T10:11:10.961Z,13580.00
2019-02-14T10:12:10.902Z,13328.00
2019-02-14T10:13:10.868Z,9056.00
2019-02-14T10:14:10.826Z,8692.00
2019-02-14T10:15:10.785Z,8204.00
2019-02-14T10:16:10.750Z,8748.00
2019-02-14T10:17:10.735Z,6840.00
2019-02-14T10:18:10.669Z,6620.00
2019-02-14T10:19:10.625Z,10680.00
2019-02-14T10:20:10.592Z,11252.00
2019-02-14T10:21:10.558Z,11148.00
2019-02-14T10:22:10.522Z,11564.00
2019-02-14T10:23:10.510Z,12364.00
2019-02-14T10:24:10.446Z,12076.00
2019-02-14T10:25:10.397Z,12320.00
2019-02-14T10:26:10.363Z,10820.00
2019-02-14T10:27:10.328Z,11472.00
2019-02-14T10:28:10.314Z,10920.00
2019-02-14T10:29:10.242Z,10724.00
2019-02-14T10:30:10.205Z,11292.00
2019-02-14T10:31:10.174Z,11516.00
2019-02-14T10:32:10.156Z,10752.00
2019-02-14T10:33:10.123Z,9952.00
2019-02-14T10:34:10.059Z,9884.00
2019-02-14T10:35:10.023Z,9748.00
2019-02-14T10:36:09.985Z,10520.00
2019-02-14T10:37:09.945Z,10480.00
2019-02-14T10:38:09.929Z,12356.00
2019-02-14T10:39:09.869Z,12892.00
2019-02-14T10:40:09.836Z,12836.00
2019-02-14T10:41:09.797Z,12896.00
2019-02-14T10:42:09.759Z,12932.00
2019-02-14T10:43:09.715Z,12948.00
2019-02-14T10:44:09.703Z,13012.00
2019-02-14T10:45:09.647Z,13052.00
2019-02-14T10:46:09.612Z,13140.00
2019-02-14T10:47:09.574Z,13244.00
2019-02-14T10:48:09.570Z,13324.00
2019-02-14T10:49:09.496Z,13368.00
2019-02-14T10:50:09.458Z,13360.00
2019-02-14T10:51:09.422Z,13344.00
2019-02-14T10:52:09.413Z,13288.00
2019-02-14T10:53:09.360Z,13200.00
2019-02-14T10:54:09.321Z,13128.00
2019-02-14T10:55:09.285Z,13056.00
2019-02-14T10:56:09.254Z,12992.00
2019-02-14T10:57:09.205Z,12988.00
2019-02-14T10:58:09.196Z,12900.00
2019-02-14T10:59:09.162Z,12860.00
2019-02-14T11:00:09.104Z,12720.00
2019-02-14T11:01:09.065Z,12584.00
2019-02-14T11:02:09.027Z,12228.00
2019-02-14T11:03:09.023Z,12148.00
2019-02-14T11:04:08.963Z,11916.00
2019-02-14T11:05:08.940Z,11244.00
2019-02-14T11:06:08.894Z,11276.00
2019-02-14T11:07:08.861Z,11260.00
2019-02-14T11:08:08.883Z,11428.00
2019-02-14T11:09:08.810Z,10208.00
2019-02-14T11:10:08.744Z,10600.00
2019-02-14T11:11:08.713Z,11472.00
2019-02-14T11:12:08.677Z,12312.00
2019-02-14T11:13:08.647Z,12564.00
2019-02-14T11:14:08.636Z,12484.00
2019-02-14T11:15:09.180Z,12488.00
2019-02-14T11:16:09.804Z,12268.00
2019-02-14T11:17:08.506Z,11996.00
2019-02-14T11:18:08.481Z,12304.00
2019-02-14T11:19:08.432Z,12260.00
2019-02-14T11:20:08.431Z,12160.00
2019-02-14T11:21:08.356Z,11904.00
2019-02-14T11:22:08.324Z,11588.00
2019-02-14T11:23:08.339Z,10104.00
2019-02-14T11:24:08.255Z,10808.00
2019-02-14T11:25:08.221Z,10460.00
2019-02-14T11:26:08.673Z,9224.00
2019-02-14T11:27:08.159Z,8876.00
2019-02-14T11:28:08.119Z,8948.00
2019-02-14T11:29:08.076Z,8812.00
2019-02-14T11:30:08.047Z,9824.00
2019-02-14T11:31:08.046Z,9936.00
2019-02-14T11:32:07.984Z,9064.00
2019-02-14T11:33:07.939Z,9620.00
2019-02-14T11:34:07.903Z,9620.00
2019-02-14T11:35:07.868Z,9788.00
2019-02-14T11:36:07.828Z,10740.00
2019-02-14T11:37:07.834Z,10296.00
2019-02-14T11:38:07.770Z,10384.00
2019-02-14T11:39:07.732Z,11008.00
2019-02-14T11:40:07.698Z,8220.00
2019-02-14T11:41:07.683Z,10472.00
2019-02-14T11:42:07.653Z,10308.00
2019-02-14T11:43:07.592Z,10932.00
2019-02-14T11:44:07.550Z,11088.00
2019-02-14T11:45:07.527Z,10508.00
2019-02-14T11:46:07.495Z,11024.00
2019-02-14T11:47:07.953Z,10944.00
2019-02-14T11:48:07.432Z,10596.00
2019-02-14T11:49:07.383Z,10484.00
2019-02-14T11:50:07.351Z,10248.00
2019-02-14T11:51:07.312Z,10540.00
2019-02-14T11:52:07.280Z,10264.00
2019-02-14T11:54:07.202Z,10108.00
2019-02-14T11:55:07.166Z,9852.00
2019-02-14T11:55:54.968Z,9768.00
2019-02-14T11:56:07.139Z,9848.00
2019-02-14T11:57:07.108Z,9420.00
2019-02-14T11:58:07.070Z,9744.00
2019-02-14T11:59:07.061Z,9864.00
2019-02-14T12:00:07.005Z,9868.00
2019-02-14T12:01:06.963Z,9792.00
2019-02-14T12:02:06.928Z,9544.00
2019-02-14T12:03:06.903Z,8228.00
2019-02-14T12:04:06.863Z,8748.00
2019-02-14T12:05:06.853Z,7216.00
2019-02-14T12:06:06.789Z,7092.00
2019-02-14T12:07:06.756Z,5976.00
2019-02-14T12:08:06.717Z,6700.00
2019-02-14T12:09:06.691Z,7612.00
2019-02-14T12:10:13.202Z,9188.00
2019-02-14T12:11:06.648Z,10096.00
2019-02-14T12:12:06.594Z,9832.00
2019-02-14T12:13:06.544Z,9624.00
2019-02-14T12:14:06.534Z,9712.00
2019-02-14T12:15:06.473Z,9588.00
2019-02-14T12:16:06.437Z,9740.00
2019-02-14T12:17:06.414Z,8696.00
2019-02-14T12:18:06.378Z,7804.00
2019-02-14T12:19:06.361Z,8212.00
2019-02-14T12:20:12.246Z,8348.00
2019-02-14T12:21:06.268Z,9144.00
2019-02-14T12:22:06.236Z,8056.00
2019-02-14T12:23:06.195Z,8160.00
2019-02-14T12:24:06.190Z,9848.00
2019-02-14T12:25:06.126Z,9908.00
2019-02-14T12:26:06.111Z,9812.00
2019-02-14T12:27:06.049Z,9296.00
2019-02-14T12:28:06.018Z,9628.00
2019-02-14T12:29:05.987Z,10024.00
2019-02-14T12:30:05.985Z,10956.00
2019-02-14T12:31:05.921Z,11044.00
2019-02-14T12:32:05.881Z,10960.00
2019-02-14T12:33:05.839Z,10872.00
2019-02-14T12:34:05.820Z,10832.00
2019-02-14T12:35:05.792Z,10648.00